sensor_id;sensor_type;location;lat;lon;timestamp;pressure;altitude;pressure_sealevel;temperature;humidity
41862;BME280;27537;57.134;-2.136;2022-09-14T00:01:11;100397.84;;;15.43;100.00
41862;BME280;27537;57.134;-2.136;2022-09-14T00:03:52;100385.69;;;15.40;100.00
41862;BME280;27537;57.134;-2.136;2022-09-14T00:06:18;100397.00;;;15.42;100.00
41862;BME280;27537;57.134;-2.136;2022-09-14T00:08:49;100378.56;;;15.28;100.00
41862;BME280;27537;57.134;-2.136;2022-09-14T00:11:16;100370.41;;;15.45;100.00
41862;BME280;27537;57.134;-2.136;2022-09-14T00:13:44;100371.81;;;15.51;100.00
41862;BME280;27537;57.134;-2.136;2022-09-14T00:16:16;100389.25;;;15.53;100.00
41862;BME280;27537;57.134;-2.136;2022-09-14T00:18:43;100383.16;;;15.38;100.00
41862;BME280;27537;57.134;-2.136;2022-09-14T00:21:11;100370.75;;;15.41;100.00
41862;BME280;27537;57.134;-2.136;2022-09-14T00:23:39;100373.16;;;15.44;100.00
41862;BME280;27537;57.134;-2.136;2022-09-14T00:26:10;100383.19;;;15.66;100.00
41862;BME280;27537;57.134;-2.136;2022-09-14T00:28:44;100358.72;;;15.64;100.00
41862;BME280;27537;57.134;-2.136;2022-09-14T00:31:11;100360.63;;;15.47;100.00
41862;BME280;27537;57.134;-2.136;2022-09-14T00:33:40;100365.88;;;15.62;100.00
41862;BME280;27537;57.134;-2.136;2022-09-14T00:36:12;100367.75;;;15.60;100.00
41862;BME280;27537;57.134;-2.136;2022-09-14T00:38:39;100370.19;;;15.63;100.00
41862;BME280;27537;57.134;-2.136;2022-09-14T00:41:11;100363.06;;;15.92;100.00
41862;BME280;27537;57.134;-2.136;2022-09-14T00:44:03;100376.34;;;15.90;100.00
41862;BME280;27537;57.134;-2.136;2022-09-14T00:46:35;100375.81;;;15.85;100.00
41862;BME280;27537;57.134;-2.136;2022-09-14T00:49:07;100360.59;;;15.76;100.00
41862;BME280;27537;57.134;-2.136;2022-09-14T00:51:36;100373.94;;;16.00;100.00
41862;BME280;27537;57.134;-2.136;2022-09-14T00:54:05;100351.69;;;15.77;100.00
41862;BME280;27537;57.134;-2.136;2022-09-14T00:56:33;100356.06;;;15.64;100.00
41862;BME280;27537;57.134;-2.136;2022-09-14T00:59:05;100349.63;;;15.68;100.00
41862;BME280;27537;57.134;-2.136;2022-09-14T01:01:34;100354.13;;;15.38;100.00
41862;BME280;27537;57.134;-2.136;2022-09-14T01:04:01;100328.66;;;15.52;100.00
41862;BME280;27537;57.134;-2.136;2022-09-14T01:09:59;100328.41;;;15.69;100.00
41862;BME280;27537;57.134;-2.136;2022-09-14T01:15:28;100357.25;;;15.72;100.00
41862;BME280;27537;57.134;-2.136;2022-09-14T01:18:17;100329.16;;;15.71;100.00
41862;BME280;27537;57.134;-2.136;2022-09-14T01:23:41;100338.13;;;15.83;100.00
41862;BME280;27537;57.134;-2.136;2022-09-14T01:26:19;100321.94;;;15.88;100.00
41862;BME280;27537;57.134;-2.136;2022-09-14T01:29:16;100327.94;;;15.77;100.00
41862;BME280;27537;57.134;-2.136;2022-09-14T01:31:55;100318.06;;;15.66;100.00
41862;BME280;27537;57.134;-2.136;2022-09-14T01:34:36;100319.88;;;15.66;100.00
41862;BME280;27537;57.134;-2.136;2022-09-14T01:37:13;100310.88;;;15.68;100.00
41862;BME280;27537;57.134;-2.136;2022-09-14T01:39:46;100326.69;;;15.83;100.00
41862;BME280;27537;57.134;-2.136;2022-09-14T01:42:15;100321.63;;;15.80;100.00
41862;BME280;27537;57.134;-2.136;2022-09-14T01:44:47;100320.03;;;15.90;100.00
41862;BME280;27537;57.134;-2.136;2022-09-14T01:50:16;100288.47;;;15.61;100.00
41862;BME280;27537;57.134;-2.136;2022-09-14T01:52:51;100295.38;;;15.64;100.00
41862;BME280;27537;57.134;-2.136;2022-09-14T01:55:27;100297.56;;;15.57;100.00
41862;BME280;27537;57.134;-2.136;2022-09-14T01:58:07;100306.06;;;15.48;100.00
41862;BME280;27537;57.134;-2.136;2022-09-14T02:00:40;100299.28;;;15.44;100.00
41862;BME280;27537;57.134;-2.136;2022-09-14T02:03:30;100318.56;;;15.59;100.00
41862;BME280;27537;57.134;-2.136;2022-09-14T02:06:08;100293.88;;;15.32;100.00
41862;BME280;27537;57.134;-2.136;2022-09-14T02:08:38;100267.69;;;15.29;100.00
41862;BME280;27537;57.134;-2.136;2022-09-14T02:11:05;100300.28;;;15.55;100.00
41862;BME280;27537;57.134;-2.136;2022-09-14T02:13:32;100284.63;;;15.40;100.00
41862;BME280;27537;57.134;-2.136;2022-09-14T02:15:58;100285.78;;;15.35;100.00
41862;BME280;27537;57.134;-2.136;2022-09-14T02:18:25;100288.84;;;15.42;100.00
41862;BME280;27537;57.134;-2.136;2022-09-14T02:20:59;100292.56;;;15.52;100.00
41862;BME280;27537;57.134;-2.136;2022-09-14T02:23:27;100281.34;;;15.36;100.00
41862;BME280;27537;57.134;-2.136;2022-09-14T02:25:53;100278.94;;;15.18;100.00
41862;BME280;27537;57.134;-2.136;2022-09-14T02:28:21;100290.19;;;15.35;100.00
41862;BME280;27537;57.134;-2.136;2022-09-14T02:31:46;100257.03;;;15.04;100.00
41862;BME280;27537;57.134;-2.136;2022-09-14T02:37:12;100297.47;;;15.17;100.00
41862;BME280;27537;57.134;-2.136;2022-09-14T02:45:42;100276.88;;;15.09;100.00
41862;BME280;27537;57.134;-2.136;2022-09-14T02:50:58;100277.34;;;15.16;100.00
41862;BME280;27537;57.134;-2.136;2022-09-14T02:53:35;100273.75;;;15.17;100.00
41862;BME280;27537;57.134;-2.136;2022-09-14T02:56:06;100283.19;;;15.07;100.00
41862;BME280;27537;57.134;-2.136;2022-09-14T02:58:36;100271.91;;;15.05;100.00
41862;BME280;27537;57.134;-2.136;2022-09-14T03:01:05;100252.13;;;14.97;100.00
41862;BME280;27537;57.134;-2.136;2022-09-14T03:03:33;100271.34;;;14.99;100.00
41862;BME280;27537;57.134;-2.136;2022-09-14T03:06:01;100271.75;;;14.93;100.00
41862;BME280;27537;57.134;-2.136;2022-09-14T03:08:28;100268.91;;;14.96;100.00
41862;BME280;27537;57.134;-2.136;2022-09-14T03:10:55;100259.50;;;14.92;100.00
41862;BME280;27537;57.134;-2.136;2022-09-14T03:13:21;100251.63;;;14.78;100.00
41862;BME280;27537;57.134;-2.136;2022-09-14T03:15:48;100259.81;;;14.88;100.00
41862;BME280;27537;57.134;-2.136;2022-09-14T03:18:15;100259.53;;;14.64;100.00
41862;BME280;27537;57.134;-2.136;2022-09-14T03:20:43;100250.38;;;14.40;100.00
41862;BME280;27537;57.134;-2.136;2022-09-14T03:23:11;100260.38;;;14.64;100.00
41862;BME280;27537;57.134;-2.136;2022-09-14T03:25:40;100254.25;;;14.20;100.00
41862;BME280;27537;57.134;-2.136;2022-09-14T03:28:08;100230.16;;;13.98;100.00
41862;BME280;27537;57.134;-2.136;2022-09-14T03:30:35;100272.91;;;14.01;100.00
41862;BME280;27537;57.134;-2.136;2022-09-14T03:33:02;100262.72;;;13.81;100.00
41862;BME280;27537;57.134;-2.136;2022-09-14T03:35:29;100260.53;;;14.32;100.00
41862;BME280;27537;57.134;-2.136;2022-09-14T03:37:57;100239.28;;;14.35;100.00
41862;BME280;27537;57.134;-2.136;2022-09-14T03:40:25;100246.34;;;14.35;100.00
41862;BME280;27537;57.134;-2.136;2022-09-14T03:42:53;100250.38;;;14.55;100.00
41862;BME280;27537;57.134;-2.136;2022-09-14T03:45:20;100252.19;;;14.54;100.00
41862;BME280;27537;57.134;-2.136;2022-09-14T03:47:48;100240.69;;;14.41;100.00
41862;BME280;27537;57.134;-2.136;2022-09-14T03:50:16;100226.31;;;14.32;100.00
41862;BME280;27537;57.134;-2.136;2022-09-14T03:52:43;100248.97;;;14.49;100.00
41862;BME280;27537;57.134;-2.136;2022-09-14T03:55:10;100238.63;;;14.32;100.00
41862;BME280;27537;57.134;-2.136;2022-09-14T03:57:37;100232.31;;;14.20;100.00
41862;BME280;27537;57.134;-2.136;2022-09-14T04:00:05;100230.56;;;14.35;100.00
41862;BME280;27537;57.134;-2.136;2022-09-14T04:02:32;100244.63;;;14.48;100.00
41862;BME280;27537;57.134;-2.136;2022-09-14T04:04:59;100241.72;;;14.53;100.00
41862;BME280;27537;57.134;-2.136;2022-09-14T04:07:26;100253.19;;;14.52;100.00
41862;BME280;27537;57.134;-2.136;2022-09-14T04:09:52;100249.16;;;14.46;100.00
41862;BME280;27537;57.134;-2.136;2022-09-14T04:12:19;100247.28;;;14.48;100.00
41862;BME280;27537;57.134;-2.136;2022-09-14T04:14:46;100190.00;;;14.23;100.00
41862;BME280;27537;57.134;-2.136;2022-09-14T04:17:12;100247.84;;;14.53;100.00
41862;BME280;27537;57.134;-2.136;2022-09-14T04:19:39;100227.06;;;14.49;100.00
41862;BME280;27537;57.134;-2.136;2022-09-14T04:22:07;100248.06;;;14.50;100.00
41862;BME280;27537;57.134;-2.136;2022-09-14T04:24:34;100236.47;;;14.38;100.00
41862;BME280;27537;57.134;-2.136;2022-09-14T04:27:01;100213.16;;;14.47;100.00
41862;BME280;27537;57.134;-2.136;2022-09-14T04:29:27;100229.63;;;14.50;100.00
41862;BME280;27537;57.134;-2.136;2022-09-14T04:31:56;100228.97;;;14.61;100.00
41862;BME280;27537;57.134;-2.136;2022-09-14T04:34:23;100233.91;;;14.51;100.00
41862;BME280;27537;57.134;-2.136;2022-09-14T04:36:50;100209.50;;;14.20;100.00
41862;BME280;27537;57.134;-2.136;2022-09-14T04:39:17;100234.09;;;14.19;100.00
41862;BME280;27537;57.134;-2.136;2022-09-14T04:41:43;100224.72;;;14.30;100.00
41862;BME280;27537;57.134;-2.136;2022-09-14T04:44:10;100208.81;;;14.02;100.00
41862;BME280;27537;57.134;-2.136;2022-09-14T04:46:38;100222.44;;;13.95;100.00
41862;BME280;27537;57.134;-2.136;2022-09-14T04:49:12;100189.50;;;13.73;100.00
41862;BME280;27537;57.134;-2.136;2022-09-14T04:51:39;100221.81;;;13.75;100.00
41862;BME280;27537;57.134;-2.136;2022-09-14T04:54:06;100207.97;;;13.57;100.00
41862;BME280;27537;57.134;-2.136;2022-09-14T04:56:35;100199.44;;;13.68;100.00
41862;BME280;27537;57.134;-2.136;2022-09-14T04:59:03;100192.09;;;13.59;100.00
41862;BME280;27537;57.134;-2.136;2022-09-14T05:01:37;100212.91;;;13.78;100.00
41862;BME280;27537;57.134;-2.136;2022-09-14T05:04:05;100191.22;;;13.89;100.00
41862;BME280;27537;57.134;-2.136;2022-09-14T05:06:34;100201.28;;;13.96;100.00
41862;BME280;27537;57.134;-2.136;2022-09-14T05:09:03;100218.22;;;14.21;100.00
41862;BME280;27537;57.134;-2.136;2022-09-14T05:11:32;100190.41;;;14.02;100.00
41862;BME280;27537;57.134;-2.136;2022-09-14T05:13:59;100224.97;;;14.11;100.00
41862;BME280;27537;57.134;-2.136;2022-09-14T05:16:29;100222.44;;;14.09;100.00
41862;BME280;27537;57.134;-2.136;2022-09-14T05:18:58;100210.13;;;13.95;100.00
41862;BME280;27537;57.134;-2.136;2022-09-14T05:21:28;100209.16;;;13.82;100.00
41862;BME280;27537;57.134;-2.136;2022-09-14T05:23:57;100229.00;;;14.02;100.00
41862;BME280;27537;57.134;-2.136;2022-09-14T05:26:26;100219.63;;;14.12;100.00
41862;BME280;27537;57.134;-2.136;2022-09-14T05:28:55;100200.81;;;14.04;100.00
41862;BME280;27537;57.134;-2.136;2022-09-14T05:31:23;100214.75;;;14.06;100.00
41862;BME280;27537;57.134;-2.136;2022-09-14T05:33:50;100207.88;;;14.03;100.00
41862;BME280;27537;57.134;-2.136;2022-09-14T05:36:17;100213.88;;;14.05;100.00
41862;BME280;27537;57.134;-2.136;2022-09-14T05:38:44;100210.59;;;14.16;100.00
41862;BME280;27537;57.134;-2.136;2022-09-14T05:41:12;100201.47;;;14.08;100.00
41862;BME280;27537;57.134;-2.136;2022-09-14T05:43:40;100196.03;;;14.11;100.00
41862;BME280;27537;57.134;-2.136;2022-09-14T05:46:11;100182.38;;;14.04;100.00
41862;BME280;27537;57.134;-2.136;2022-09-14T05:48:38;100212.13;;;14.20;100.00
41862;BME280;27537;57.134;-2.136;2022-09-14T05:51:20;100220.00;;;14.35;100.00
41862;BME280;27537;57.134;-2.136;2022-09-14T05:53:52;100211.06;;;14.37;100.00
41862;BME280;27537;57.134;-2.136;2022-09-14T05:56:20;100193.59;;;14.36;100.00
41862;BME280;27537;57.134;-2.136;2022-09-14T05:58:47;100206.66;;;14.52;100.00
41862;BME280;27537;57.134;-2.136;2022-09-14T06:03:43;100212.94;;;14.64;100.00
41862;BME280;27537;57.134;-2.136;2022-09-14T06:06:12;100205.50;;;14.56;100.00
41862;BME280;27537;57.134;-2.136;2022-09-14T06:08:40;100195.56;;;14.61;100.00
41862;BME280;27537;57.134;-2.136;2022-09-14T06:11:15;100150.59;;;14.36;100.00
41862;BME280;27537;57.134;-2.136;2022-09-14T06:13:43;100179.94;;;14.44;100.00
41862;BME280;27537;57.134;-2.136;2022-09-14T06:16:14;100213.50;;;14.69;100.00
41862;BME280;27537;57.134;-2.136;2022-09-14T06:18:42;100189.78;;;14.55;100.00
41862;BME280;27537;57.134;-2.136;2022-09-14T06:21:11;100226.78;;;14.82;100.00
41862;BME280;27537;57.134;-2.136;2022-09-14T06:23:41;100205.69;;;14.82;100.00
41862;BME280;27537;57.134;-2.136;2022-09-14T06:26:08;100095.81;;;13.99;100.00
41862;BME280;27537;57.134;-2.136;2022-09-14T06:28:35;100173.34;;;14.37;100.00
41862;BME280;27537;57.134;-2.136;2022-09-14T06:31:03;100168.38;;;14.47;100.00
41862;BME280;27537;57.134;-2.136;2022-09-14T06:33:30;100185.28;;;14.57;100.00
41862;BME280;27537;57.134;-2.136;2022-09-14T06:36:00;100205.22;;;14.75;100.00
41862;BME280;27537;57.134;-2.136;2022-09-14T06:38:27;100183.78;;;14.53;100.00
41862;BME280;27537;57.134;-2.136;2022-09-14T06:40:59;100136.66;;;14.48;100.00
41862;BME280;27537;57.134;-2.136;2022-09-14T06:43:29;100215.97;;;14.99;100.00
41862;BME280;27537;57.134;-2.136;2022-09-14T06:46:02;100178.84;;;14.90;100.00
41862;BME280;27537;57.134;-2.136;2022-09-14T06:48:30;100227.53;;;15.11;100.00
41862;BME280;27537;57.134;-2.136;2022-09-14T06:50:57;100232.94;;;14.95;100.00
41862;BME280;27537;57.134;-2.136;2022-09-14T06:53:24;100172.19;;;14.55;100.00
41862;BME280;27537;57.134;-2.136;2022-09-14T06:55:51;100205.56;;;14.84;100.00
41862;BME280;27537;57.134;-2.136;2022-09-14T06:58:18;100168.38;;;14.61;100.00
41862;BME280;27537;57.134;-2.136;2022-09-14T07:00:44;100184.25;;;14.74;100.00
41862;BME280;27537;57.134;-2.136;2022-09-14T07:03:11;100193.38;;;14.54;100.00
41862;BME280;27537;57.134;-2.136;2022-09-14T07:05:38;100197.47;;;14.87;100.00
41862;BME280;27537;57.134;-2.136;2022-09-14T07:08:05;100159.03;;;14.55;100.00
41862;BME280;27537;57.134;-2.136;2022-09-14T07:10:37;100177.69;;;14.38;100.00
41862;BME280;27537;57.134;-2.136;2022-09-14T07:13:04;100183.91;;;14.93;100.00
41862;BME280;27537;57.134;-2.136;2022-09-14T07:15:31;100194.75;;;15.55;100.00
41862;BME280;27537;57.134;-2.136;2022-09-14T07:17:58;100153.72;;;15.90;100.00
41862;BME280;27537;57.134;-2.136;2022-09-14T07:20:25;100154.09;;;15.45;100.00
41862;BME280;27537;57.134;-2.136;2022-09-14T07:22:52;100107.09;;;15.12;100.00
41862;BME280;27537;57.134;-2.136;2022-09-14T07:25:19;100194.66;;;15.57;100.00
41862;BME280;27537;57.134;-2.136;2022-09-14T07:27:46;100178.63;;;15.20;100.00
41862;BME280;27537;57.134;-2.136;2022-09-14T07:30:13;100194.81;;;15.41;100.00
41862;BME280;27537;57.134;-2.136;2022-09-14T07:32:39;100178.59;;;15.07;100.00
41862;BME280;27537;57.134;-2.136;2022-09-14T07:35:06;100201.47;;;15.34;100.00
41862;BME280;27537;57.134;-2.136;2022-09-14T07:37:34;100163.22;;;15.14;100.00
41862;BME280;27537;57.134;-2.136;2022-09-14T07:40:01;100188.94;;;15.50;100.00
41862;BME280;27537;57.134;-2.136;2022-09-14T07:42:28;100184.44;;;15.65;100.00
41862;BME280;27537;57.134;-2.136;2022-09-14T07:44:55;100182.09;;;15.48;100.00
41862;BME280;27537;57.134;-2.136;2022-09-14T07:47:22;100229.97;;;15.82;100.00
41862;BME280;27537;57.134;-2.136;2022-09-14T07:49:48;100204.69;;;15.65;100.00
41862;BME280;27537;57.134;-2.136;2022-09-14T07:52:15;100184.00;;;15.59;100.00
41862;BME280;27537;57.134;-2.136;2022-09-14T07:54:42;100215.84;;;15.55;100.00
41862;BME280;27537;57.134;-2.136;2022-09-14T07:57:09;100164.38;;;15.23;100.00
41862;BME280;27537;57.134;-2.136;2022-09-14T07:59:35;100207.94;;;15.55;100.00
41862;BME280;27537;57.134;-2.136;2022-09-14T08:02:07;100173.81;;;15.40;100.00
41862;BME280;27537;57.134;-2.136;2022-09-14T08:04:34;100162.00;;;15.45;100.00
41862;BME280;27537;57.134;-2.136;2022-09-14T08:07:02;100169.28;;;15.42;100.00
41862;BME280;27537;57.134;-2.136;2022-09-14T08:09:29;100178.47;;;15.49;100.00
41862;BME280;27537;57.134;-2.136;2022-09-14T08:11:56;100161.09;;;15.19;100.00
41862;BME280;27537;57.134;-2.136;2022-09-14T08:14:24;100189.19;;;15.60;100.00
41862;BME280;27537;57.134;-2.136;2022-09-14T08:16:50;100188.03;;;15.90;100.00
41862;BME280;27537;57.134;-2.136;2022-09-14T08:19:18;100218.91;;;16.15;100.00
41862;BME280;27537;57.134;-2.136;2022-09-14T08:21:46;100184.13;;;16.21;100.00
41862;BME280;27537;57.134;-2.136;2022-09-14T08:24:19;100172.00;;;15.93;100.00
41862;BME280;27537;57.134;-2.136;2022-09-14T08:26:47;100153.34;;;15.83;100.00
41862;BME280;27537;57.134;-2.136;2022-09-14T08:29:15;100197.25;;;15.97;100.00
41862;BME280;27537;57.134;-2.136;2022-09-14T08:31:43;100205.81;;;16.01;100.00
41862;BME280;27537;57.134;-2.136;2022-09-14T08:34:12;100176.28;;;15.55;100.00
41862;BME280;27537;57.134;-2.136;2022-09-14T08:36:40;100223.53;;;15.99;100.00
41862;BME280;27537;57.134;-2.136;2022-09-14T08:39:09;100217.09;;;16.16;100.00
41862;BME280;27537;57.134;-2.136;2022-09-14T08:47:04;100182.34;;;16.35;100.00
41862;BME280;27537;57.134;-2.136;2022-09-14T08:49:42;100199.34;;;16.43;100.00
41862;BME280;27537;57.134;-2.136;2022-09-14T08:54:39;100141.50;;;15.89;100.00
41862;BME280;27537;57.134;-2.136;2022-09-14T08:57:14;100213.31;;;16.82;100.00
41862;BME280;27537;57.134;-2.136;2022-09-14T09:05:33;100214.88;;;17.22;100.00
41862;BME280;27537;57.134;-2.136;2022-09-14T09:08:18;100217.09;;;17.39;100.00
41862;BME280;27537;57.134;-2.136;2022-09-14T09:10:47;100195.03;;;17.63;100.00
41862;BME280;27537;57.134;-2.136;2022-09-14T09:13:21;100188.19;;;17.01;100.00
41862;BME280;27537;57.134;-2.136;2022-09-14T09:15:52;100156.75;;;17.56;100.00
41862;BME280;27537;57.134;-2.136;2022-09-14T09:21:41;100213.16;;;17.80;100.00
41862;BME280;27537;57.134;-2.136;2022-09-14T09:26:37;100205.50;;;17.29;100.00
41862;BME280;27537;57.134;-2.136;2022-09-14T09:29:04;100196.53;;;17.07;100.00
41862;BME280;27537;57.134;-2.136;2022-09-14T09:31:38;100198.19;;;16.84;100.00
41862;BME280;27537;57.134;-2.136;2022-09-14T09:34:06;100188.28;;;16.00;100.00
41862;BME280;27537;57.134;-2.136;2022-09-14T09:36:39;100140.94;;;15.97;100.00
41862;BME280;27537;57.134;-2.136;2022-09-14T09:39:06;100181.38;;;16.36;100.00
41862;BME280;27537;57.134;-2.136;2022-09-14T09:41:56;100163.16;;;15.94;100.00
41862;BME280;27537;57.134;-2.136;2022-09-14T09:44:24;100163.56;;;16.01;100.00
41862;BME280;27537;57.134;-2.136;2022-09-14T09:46:59;100193.84;;;16.33;100.00
41862;BME280;27537;57.134;-2.136;2022-09-14T09:49:36;100219.06;;;16.63;100.00
41862;BME280;27537;57.134;-2.136;2022-09-14T09:52:15;100210.75;;;16.44;100.00
41862;BME280;27537;57.134;-2.136;2022-09-14T09:54:49;100182.34;;;16.09;100.00
41862;BME280;27537;57.134;-2.136;2022-09-14T10:00:24;100208.00;;;16.45;100.00
41862;BME280;27537;57.134;-2.136;2022-09-14T10:02:52;100211.84;;;16.65;100.00
41862;BME280;27537;57.134;-2.136;2022-09-14T10:05:24;100215.22;;;16.67;100.00
41862;BME280;27537;57.134;-2.136;2022-09-14T10:07:59;100218.69;;;16.94;100.00
41862;BME280;27537;57.134;-2.136;2022-09-14T10:13:17;100180.47;;;16.61;100.00
41862;BME280;27537;57.134;-2.136;2022-09-14T10:15:47;100190.97;;;16.49;100.00
41862;BME280;27537;57.134;-2.136;2022-09-14T10:18:19;100157.41;;;16.26;100.00
41862;BME280;27537;57.134;-2.136;2022-09-14T10:25:48;100202.00;;;16.67;100.00
41862;BME280;27537;57.134;-2.136;2022-09-14T10:30:55;100171.81;;;16.96;100.00
41862;BME280;27537;57.134;-2.136;2022-09-14T10:33:27;100179.34;;;17.37;100.00
41862;BME280;27537;57.134;-2.136;2022-09-14T10:39:06;100204.28;;;17.46;100.00
41862;BME280;27537;57.134;-2.136;2022-09-14T10:49:39;100192.16;;;18.24;88.91
41862;BME280;27537;57.134;-2.136;2022-09-14T10:57:27;100165.59;;;17.79;81.00
41862;BME280;27537;57.134;-2.136;2022-09-14T11:00:09;100147.78;;;17.81;75.16
41862;BME280;27537;57.134;-2.136;2022-09-14T11:05:24;100183.38;;;18.12;74.27
41862;BME280;27537;57.134;-2.136;2022-09-14T11:13:53;100184.69;;;17.60;82.94
41862;BME280;27537;57.134;-2.136;2022-09-14T11:25:14;100142.22;;;17.15;87.89
41862;BME280;27537;57.134;-2.136;2022-09-14T11:27:47;100183.13;;;17.22;87.01
41862;BME280;27537;57.134;-2.136;2022-09-14T11:30:19;100174.34;;;17.21;89.55
41862;BME280;27537;57.134;-2.136;2022-09-14T11:33:46;100208.16;;;17.53;93.29
41862;BME280;27537;57.134;-2.136;2022-09-14T11:36:03;100177.59;;;17.01;90.43
41862;BME280;27537;57.134;-2.136;2022-09-14T11:38:43;100160.94;;;17.12;97.16
41862;BME280;27537;57.134;-2.136;2022-09-14T11:41:32;100180.94;;;16.92;100.00
41862;BME280;27537;57.134;-2.136;2022-09-14T11:44:15;100199.81;;;17.22;100.00
41862;BME280;27537;57.134;-2.136;2022-09-14T11:50:02;100208.06;;;17.31;100.00
41862;BME280;27537;57.134;-2.136;2022-09-14T11:52:32;100193.31;;;17.15;100.00
41862;BME280;27537;57.134;-2.136;2022-09-14T11:55:01;100193.19;;;17.17;100.00
41862;BME280;27537;57.134;-2.136;2022-09-14T11:57:30;100212.44;;;17.19;100.00
41862;BME280;27537;57.134;-2.136;2022-09-14T11:59:59;100193.91;;;17.19;99.39
41862;BME280;27537;57.134;-2.136;2022-09-14T12:15:36;100202.16;;;18.54;75.92
41862;BME280;27537;57.134;-2.136;2022-09-14T12:20:48;100185.78;;;18.38;74.91
41862;BME280;27537;57.134;-2.136;2022-09-14T12:23:28;100190.34;;;18.25;78.43
41862;BME280;27537;57.134;-2.136;2022-09-14T12:36:09;100191.81;;;18.40;70.53
41862;BME280;27537;57.134;-2.136;2022-09-14T12:56:33;100210.56;;;18.48;73.41
41862;BME280;27537;57.134;-2.136;2022-09-14T12:59:34;100192.97;;;18.70;73.57
41862;BME280;27537;57.134;-2.136;2022-09-14T13:02:12;100205.16;;;18.61;77.32
41862;BME280;27537;57.134;-2.136;2022-09-14T13:04:45;100179.38;;;18.63;74.39
41862;BME280;27537;57.134;-2.136;2022-09-14T13:07:15;100166.56;;;19.23;73.84
41862;BME280;27537;57.134;-2.136;2022-09-14T13:09:48;100168.13;;;18.82;68.73
41862;BME280;27537;57.134;-2.136;2022-09-14T13:12:26;100205.50;;;19.23;66.75
41862;BME280;27537;57.134;-2.136;2022-09-14T13:14:59;100196.06;;;18.97;69.83
41862;BME280;27537;57.134;-2.136;2022-09-14T13:17:27;100198.25;;;18.81;69.94
41862;BME280;27537;57.134;-2.136;2022-09-14T13:20:00;100198.28;;;18.58;72.06
41862;BME280;27537;57.134;-2.136;2022-09-14T13:22:32;100181.78;;;18.44;70.77
41862;BME280;27537;57.134;-2.136;2022-09-14T13:24:59;100173.13;;;18.42;72.41
41862;BME280;27537;57.134;-2.136;2022-09-14T13:27:36;100214.81;;;18.28;74.24
41862;BME280;27537;57.134;-2.136;2022-09-14T13:30:06;100214.44;;;17.99;76.89
41862;BME280;27537;57.134;-2.136;2022-09-14T13:32:40;100176.56;;;17.74;78.07
41862;BME280;27537;57.134;-2.136;2022-09-14T13:35:37;100212.00;;;18.07;79.00
41862;BME280;27537;57.134;-2.136;2022-09-14T13:38:12;100191.88;;;17.46;80.38
41862;BME280;27537;57.134;-2.136;2022-09-14T13:40:43;100165.69;;;17.55;77.77
41862;BME280;27537;57.134;-2.136;2022-09-14T13:43:17;100191.56;;;17.74;78.18
41862;BME280;27537;57.134;-2.136;2022-09-14T13:45:47;100162.50;;;17.38;77.91
41862;BME280;27537;57.134;-2.136;2022-09-14T13:48:24;100166.91;;;17.02;80.47
41862;BME280;27537;57.134;-2.136;2022-09-14T13:50:52;100230.53;;;17.60;81.86
41862;BME280;27537;57.134;-2.136;2022-09-14T13:56:23;100219.63;;;18.23;82.36
41862;BME280;27537;57.134;-2.136;2022-09-14T14:04:34;100208.75;;;17.92;80.52
41862;BME280;27537;57.134;-2.136;2022-09-14T14:09:49;100239.00;;;17.77;84.35
41862;BME280;27537;57.134;-2.136;2022-09-14T14:12:36;100201.75;;;17.91;84.41
41862;BME280;27537;57.134;-2.136;2022-09-14T14:17:39;100228.41;;;18.01;86.38
41862;BME280;27537;57.134;-2.136;2022-09-14T14:25:54;100223.41;;;17.01;95.18
41862;BME280;27537;57.134;-2.136;2022-09-14T14:28:33;100194.69;;;16.47;98.43
41862;BME280;27537;57.134;-2.136;2022-09-14T14:31:03;100233.53;;;16.70;92.46
41862;BME280;27537;57.134;-2.136;2022-09-14T14:33:42;100261.81;;;16.94;91.84
41862;BME280;27537;57.134;-2.136;2022-09-14T14:36:23;100210.28;;;16.63;87.32
41862;BME280;27537;57.134;-2.136;2022-09-14T14:38:50;100234.19;;;16.61;81.03
41862;BME280;27537;57.134;-2.136;2022-09-14T14:41:18;100248.81;;;17.04;80.14
41862;BME280;27537;57.134;-2.136;2022-09-14T14:43:47;100253.75;;;17.08;81.18
41862;BME280;27537;57.134;-2.136;2022-09-14T14:46:16;100250.22;;;16.71;84.47
41862;BME280;27537;57.134;-2.136;2022-09-14T14:48:43;100240.47;;;16.97;83.49
41862;BME280;27537;57.134;-2.136;2022-09-14T14:51:13;100259.03;;;16.72;83.79
41862;BME280;27537;57.134;-2.136;2022-09-14T14:53:47;100223.59;;;17.11;85.18
41862;BME280;27537;57.134;-2.136;2022-09-14T14:56:14;100227.69;;;16.91;83.46
41862;BME280;27537;57.134;-2.136;2022-09-14T14:58:45;100239.75;;;17.19;79.07
41862;BME280;27537;57.134;-2.136;2022-09-14T15:01:12;100250.78;;;16.63;80.78
41862;BME280;27537;57.134;-2.136;2022-09-14T15:03:39;100202.06;;;16.55;80.17
41862;BME280;27537;57.134;-2.136;2022-09-14T15:06:15;100254.09;;;17.04;78.05
41862;BME280;27537;57.134;-2.136;2022-09-14T15:08:44;100207.81;;;16.73;82.00
41862;BME280;27537;57.134;-2.136;2022-09-14T15:11:17;100205.53;;;16.68;79.14
41862;BME280;27537;57.134;-2.136;2022-09-14T15:13:44;100246.81;;;17.19;77.45
41862;BME280;27537;57.134;-2.136;2022-09-14T15:16:12;100178.91;;;16.95;75.08
41862;BME280;27537;57.134;-2.136;2022-09-14T15:18:39;100197.88;;;17.37;74.95
41862;BME280;27537;57.134;-2.136;2022-09-14T15:21:07;100180.66;;;17.07;72.97
41862;BME280;27537;57.134;-2.136;2022-09-14T15:23:34;100191.16;;;17.20;72.93
41862;BME280;27537;57.134;-2.136;2022-09-14T15:26:01;100189.00;;;17.14;72.70
41862;BME280;27537;57.134;-2.136;2022-09-14T15:28:28;100194.09;;;17.29;71.36
41862;BME280;27537;57.134;-2.136;2022-09-14T15:30:56;100205.19;;;17.34;70.05